createdAt,value
2023-08-16T00:00:23.644Z,20.66
2023-08-16T00:01:25.351Z,20.82
2023-08-16T00:02:26.971Z,20.83
2023-08-16T00:03:28.798Z,20.83
2023-08-16T00:04:30.495Z,20.78
2023-08-16T00:05:33.316Z,20.79
2023-08-16T00:06:34.946Z,20.63
2023-08-16T00:07:36.509Z,20.58
2023-08-16T00:08:38.085Z,20.57
2023-08-16T00:09:40.581Z,20.52
2023-08-16T00:10:42.198Z,20.56
2023-08-16T00:11:44.000Z,20.52
2023-08-16T00:12:45.687Z,20.54
2023-08-16T00:13:47.276Z,20.51
2023-08-16T00:14:48.835Z,20.58
2023-08-16T00:15:50.632Z,20.35
2023-08-16T00:16:52.446Z,20.35
2023-08-16T00:17:54.697Z,20.38
2023-08-16T00:18:56.214Z,20.49
2023-08-16T00:19:57.754Z,20.21
2023-08-16T00:21:00.391Z,20.09
2023-08-16T00:22:02.317Z,20.11
2023-08-16T00:23:04.192Z,20.00
2023-08-16T00:24:06.502Z,20.08
2023-08-16T00:25:08.330Z,20.13
2023-08-16T00:26:10.102Z,20.09
2023-08-16T00:27:11.743Z,20.13
2023-08-16T00:28:13.351Z,20.00
2023-08-16T00:29:14.928Z,19.93
2023-08-16T00:30:16.577Z,19.90
2023-08-16T00:31:19.255Z,19.88
2023-08-16T00:32:20.821Z,19.92
2023-08-16T00:33:22.857Z,19.92
2023-08-16T00:34:24.601Z,19.94
2023-08-16T00:35:26.219Z,19.95
2023-08-16T00:36:28.259Z,19.92
2023-08-16T00:37:29.925Z,20.04
2023-08-16T00:38:31.495Z,20.08
2023-08-16T00:39:33.815Z,20.18
2023-08-16T00:40:35.377Z,20.08
2023-08-16T00:41:37.003Z,19.94
2023-08-16T00:42:38.583Z,20.04
2023-08-16T00:43:40.699Z,19.98
2023-08-16T00:44:44.785Z,20.01
2023-08-16T00:45:47.161Z,20.02
2023-08-16T00:46:48.659Z,20.20
2023-08-16T00:47:50.448Z,20.12
2023-08-16T00:48:52.258Z,20.11
2023-08-16T00:49:54.095Z,19.97
2023-08-16T00:50:55.704Z,20.05
2023-08-16T00:51:57.561Z,20.08
2023-08-16T00:52:59.385Z,20.07
2023-08-16T00:54:01.028Z,19.99
2023-08-16T00:55:03.631Z,19.93
2023-08-16T00:56:06.226Z,19.95
2023-08-16T00:57:10.088Z,19.99
2023-08-16T00:58:11.704Z,19.99
2023-08-16T00:59:15.400Z,19.96
2023-08-16T01:00:17.172Z,19.85
2023-08-16T01:01:18.852Z,19.78
2023-08-16T01:02:21.042Z,19.79
2023-08-16T01:03:22.686Z,19.68
2023-08-16T01:04:24.444Z,19.63
2023-08-16T01:05:26.406Z,19.86
2023-08-16T01:06:28.022Z,19.87
2023-08-16T01:07:30.142Z,19.80
2023-08-16T01:08:33.211Z,19.71
2023-08-16T01:09:35.331Z,19.96
2023-08-16T01:10:47.208Z,20.04
2023-08-16T01:12:00.615Z,19.98
2023-08-16T01:13:11.341Z,20.10
2023-08-16T01:14:17.946Z,19.94
2023-08-16T01:15:22.609Z,19.90
2023-08-16T01:16:25.626Z,19.99
2023-08-16T01:17:28.258Z,20.00
2023-08-16T01:18:30.938Z,19.96
2023-08-16T01:19:34.148Z,19.98
2023-08-16T01:20:37.023Z,19.93
2023-08-16T01:21:47.457Z,19.88
2023-08-16T01:22:59.963Z,19.92
2023-08-16T01:24:36.030Z,19.76
2023-08-16T01:25:51.014Z,19.78
2023-08-16T01:26:54.241Z,19.89
2023-08-16T01:27:56.625Z,19.90
2023-08-16T01:28:58.626Z,19.88
2023-08-16T01:30:00.392Z,19.76
2023-08-16T01:31:05.036Z,19.71
2023-08-16T01:32:07.334Z,19.53
2023-08-16T01:33:09.446Z,19.74
2023-08-16T01:34:11.197Z,19.66
2023-08-16T01:35:17.909Z,19.65
2023-08-16T01:36:20.642Z,19.71
2023-08-16T01:37:22.311Z,19.67
2023-08-16T01:38:24.389Z,19.68
2023-08-16T01:39:25.942Z,19.74
2023-08-16T01:40:30.279Z,19.75
2023-08-16T01:41:40.232Z,19.73
2023-08-16T01:42:45.052Z,19.63
2023-08-16T01:43:48.038Z,19.70
2023-08-16T01:44:50.569Z,19.59
2023-08-16T01:45:54.028Z,19.56
2023-08-16T01:46:55.996Z,19.50
2023-08-16T01:47:58.627Z,19.37
2023-08-16T01:49:01.682Z,19.53
2023-08-16T01:50:05.365Z,19.57
2023-08-16T01:51:07.504Z,19.54
2023-08-16T01:52:09.382Z,19.61
2023-08-16T01:53:10.953Z,19.63
2023-08-16T01:54:13.384Z,19.55
2023-08-16T01:55:15.838Z,19.53
2023-08-16T01:56:17.425Z,19.51
2023-08-16T01:57:19.113Z,19.42
2023-08-16T01:58:21.156Z,19.43
2023-08-16T01:59:22.742Z,19.49
2023-08-16T02:00:25.998Z,19.44
2023-08-16T02:01:28.023Z,19.37
2023-08-16T02:02:29.895Z,19.26
2023-08-16T02:03:33.399Z,19.28
2023-08-16T02:04:35.039Z,19.31
2023-08-16T02:05:36.683Z,19.34
2023-08-16T02:06:38.239Z,19.27
2023-08-16T02:07:39.857Z,19.17
2023-08-16T02:08:41.434Z,19.27
2023-08-16T02:09:42.998Z,19.27
2023-08-16T02:10:44.544Z,19.30
2023-08-16T02:11:46.116Z,19.32
2023-08-16T02:12:47.668Z,19.33
2023-08-16T02:13:49.450Z,19.29
2023-08-16T02:14:51.350Z,19.24
2023-08-16T02:16:04.292Z,19.16
2023-08-16T02:17:06.055Z,19.12
2023-08-16T02:18:12.150Z,19.11
2023-08-16T02:19:14.086Z,19.14
2023-08-16T02:20:15.688Z,19.13
2023-08-16T02:21:17.240Z,19.12
2023-08-16T02:22:18.853Z,19.03
2023-08-16T02:23:21.678Z,19.11
2023-08-16T02:24:23.332Z,19.08
2023-08-16T02:25:24.956Z,19.11
2023-08-16T02:26:26.956Z,18.93
2023-08-16T02:27:28.543Z,18.79
2023-08-16T02:28:30.431Z,18.86
2023-08-16T02:29:34.114Z,18.88
2023-08-16T02:30:35.749Z,18.91
2023-08-16T02:31:37.407Z,18.98
2023-08-16T02:32:39.061Z,18.91
2023-08-16T02:33:43.712Z,18.96
2023-08-16T02:34:45.315Z,19.00
2023-08-16T02:35:46.871Z,19.06
2023-08-16T02:36:48.465Z,19.05
2023-08-16T02:37:51.221Z,19.03
2023-08-16T02:38:53.423Z,18.94
2023-08-16T02:39:54.983Z,18.92
2023-08-16T02:40:56.633Z,19.02
2023-08-16T02:41:58.766Z,18.93
2023-08-16T02:43:00.340Z,18.87
2023-08-16T02:44:01.919Z,18.74
2023-08-16T02:45:03.646Z,18.81
2023-08-16T02:46:05.200Z,18.32
2023-08-16T02:47:07.140Z,18.33
2023-08-16T02:48:08.731Z,17.95
2023-08-16T02:49:10.340Z,18.28
2023-08-16T02:50:12.206Z,18.40
2023-08-16T02:51:13.833Z,18.40
2023-08-16T02:52:15.460Z,18.56
2023-08-16T02:53:17.688Z,18.63
2023-08-16T02:54:19.545Z,18.71
2023-08-16T02:55:21.097Z,18.70
2023-08-16T02:56:22.828Z,18.67
2023-08-16T02:57:24.651Z,18.61
2023-08-16T02:58:26.581Z,18.53
2023-08-16T02:59:28.141Z,18.47
2023-08-16T03:00:31.052Z,18.49
2023-08-16T03:01:32.655Z,18.49
2023-08-16T03:02:35.610Z,18.53
2023-08-16T03:03:37.326Z,18.52
2023-08-16T03:04:40.311Z,18.62
2023-08-16T03:05:41.992Z,18.59
2023-08-16T03:06:44.049Z,18.61
2023-08-16T03:07:45.686Z,18.53
2023-08-16T03:08:47.302Z,18.58
2023-08-16T03:09:48.889Z,18.57
2023-08-16T03:10:50.715Z,18.60
2023-08-16T03:11:52.286Z,18.48
2023-08-16T03:12:53.872Z,18.47
2023-08-16T03:13:55.713Z,18.46
2023-08-16T03:14:57.264Z,18.47
2023-08-16T03:16:00.357Z,18.48
2023-08-16T03:17:02.657Z,18.49
2023-08-16T03:18:04.949Z,18.48
2023-08-16T03:19:06.665Z,18.44
2023-08-16T03:20:10.698Z,18.42
2023-08-16T03:21:12.968Z,18.39
2023-08-16T03:22:14.636Z,18.41
2023-08-16T03:23:18.052Z,18.36
2023-08-16T03:24:19.682Z,18.36
2023-08-16T03:25:21.331Z,18.27
2023-08-16T03:26:23.400Z,18.31
2023-08-16T03:27:25.297Z,18.26
2023-08-16T03:28:27.103Z,18.31
2023-08-16T03:29:28.696Z,18.26
2023-08-16T03:30:30.302Z,18.33
2023-08-16T03:31:32.062Z,18.40
2023-08-16T03:32:33.725Z,18.30
2023-08-16T03:33:36.723Z,18.31
2023-08-16T03:34:39.889Z,18.26
2023-08-16T03:35:41.526Z,18.25
2023-08-16T03:36:43.271Z,18.31
2023-08-16T03:37:44.973Z,18.23
2023-08-16T03:38:46.595Z,18.21
2023-08-16T03:39:48.219Z,18.24
2023-08-16T03:40:49.884Z,18.19
2023-08-16T03:41:51.623Z,18.14
2023-08-16T03:42:53.188Z,18.22
2023-08-16T03:43:54.805Z,18.25
2023-08-16T03:44:56.470Z,18.13
2023-08-16T03:45:58.158Z,18.15
2023-08-16T03:46:59.759Z,18.07
2023-08-16T03:48:03.485Z,18.12
2023-08-16T03:49:05.130Z,18.04
2023-08-16T03:50:07.277Z,18.08
2023-08-16T03:51:09.474Z,17.95
2023-08-16T03:52:11.209Z,17.94
2023-08-16T03:53:12.852Z,18.02
2023-08-16T03:54:14.450Z,18.06
2023-08-16T03:55:16.115Z,18.10
2023-08-16T03:56:17.977Z,18.12
2023-08-16T03:57:19.862Z,18.01
2023-08-16T03:58:21.455Z,17.73
2023-08-16T03:59:23.797Z,17.81
2023-08-16T04:00:25.556Z,17.94
2023-08-16T04:01:27.246Z,17.83
2023-08-16T04:02:28.967Z,17.78
2023-08-16T04:03:30.688Z,17.66
2023-08-16T04:04:32.424Z,17.72
2023-08-16T04:05:34.173Z,17.75
2023-08-16T04:06:35.727Z,17.78
2023-08-16T04:07:37.391Z,17.83
2023-08-16T04:08:40.130Z,17.83
2023-08-16T04:09:41.774Z,17.74
2023-08-16T04:10:43.372Z,17.81
2023-08-16T04:11:44.910Z,17.89
2023-08-16T04:12:46.472Z,17.91
2023-08-16T04:13:48.053Z,17.86
2023-08-16T04:14:51.065Z,17.77
2023-08-16T04:15:52.784Z,17.83
2023-08-16T04:16:54.989Z,17.83
2023-08-16T04:17:56.908Z,17.80
2023-08-16T04:18:58.516Z,17.80
2023-08-16T04:20:00.343Z,17.93
2023-08-16T04:21:01.981Z,17.91
2023-08-16T04:22:03.670Z,17.88
2023-08-16T04:23:05.228Z,17.87
2023-08-16T04:24:07.261Z,17.92
2023-08-16T04:25:09.630Z,17.92
2023-08-16T04:26:11.335Z,17.93
2023-08-16T04:27:13.316Z,17.85
2023-08-16T04:28:14.970Z,17.87
2023-08-16T04:29:16.687Z,17.95
2023-08-16T04:30:18.677Z,17.78
2023-08-16T04:31:20.299Z,17.78
2023-08-16T04:32:21.996Z,17.95
2023-08-16T04:33:23.683Z,17.92
2023-08-16T04:34:25.310Z,18.02
2023-08-16T04:35:26.958Z,18.03
2023-08-16T04:36:28.598Z,18.08
2023-08-16T04:37:30.396Z,18.01
2023-08-16T04:38:32.091Z,18.00
2023-08-16T04:39:33.873Z,17.95
2023-08-16T04:40:35.777Z,18.10
2023-08-16T04:41:38.050Z,18.02
2023-08-16T04:42:39.674Z,17.91
2023-08-16T04:43:41.816Z,17.97
2023-08-16T04:44:43.916Z,18.02
2023-08-16T04:45:46.270Z,18.12
2023-08-16T04:46:50.757Z,18.15
2023-08-16T04:47:52.365Z,18.22
2023-08-16T04:48:54.737Z,18.14
2023-08-16T04:49:56.592Z,18.12
2023-08-16T04:50:58.244Z,18.13
2023-08-16T04:51:59.910Z,18.18
2023-08-16T04:53:02.297Z,18.21
2023-08-16T04:54:04.294Z,18.27
2023-08-16T04:55:07.288Z,18.36
2023-08-16T04:56:09.368Z,18.37
2023-08-16T04:57:10.986Z,18.47
2023-08-16T04:58:14.484Z,18.39
2023-08-16T04:59:22.083Z,18.42
2023-08-16T05:00:24.280Z,18.36
2023-08-16T05:01:32.091Z,18.36
2023-08-16T05:02:34.703Z,18.48
2023-08-16T05:03:36.348Z,18.53
2023-08-16T05:04:37.897Z,18.53
2023-08-16T05:05:39.511Z,18.71
2023-08-16T05:06:41.208Z,18.74
2023-08-16T05:07:42.877Z,18.98
2023-08-16T05:08:44.812Z,19.42
2023-08-16T05:09:46.440Z,19.58
2023-08-16T05:10:48.035Z,19.74
2023-08-16T05:11:49.729Z,20.10
2023-08-16T05:12:51.848Z,20.35
2023-08-16T05:13:53.632Z,20.84
2023-08-16T05:14:55.257Z,21.21
2023-08-16T05:15:57.940Z,21.44
2023-08-16T05:16:59.529Z,21.80
2023-08-16T05:18:01.215Z,22.06
2023-08-16T05:19:03.392Z,22.46
2023-08-16T05:20:07.823Z,22.73
2023-08-16T05:21:09.455Z,22.91
2023-08-16T05:22:11.021Z,22.91
2023-08-16T05:23:12.607Z,22.76
2023-08-16T05:24:14.193Z,22.63
2023-08-16T05:25:15.837Z,22.80
2023-08-16T05:26:17.459Z,22.53
2023-08-16T05:27:19.106Z,22.24
2023-08-16T05:28:20.954Z,22.32
2023-08-16T05:29:22.589Z,22.25
2023-08-16T05:30:24.142Z,22.25
2023-08-16T05:31:25.724Z,22.35
2023-08-16T05:32:27.405Z,22.47
2023-08-16T05:33:29.236Z,22.43
2023-08-16T05:34:31.001Z,22.12
2023-08-16T05:35:35.690Z,22.02
2023-08-16T05:36:46.987Z,21.87
2023-08-16T05:37:49.393Z,21.79
2023-08-16T05:38:50.933Z,21.80
2023-08-16T05:39:52.807Z,21.60
2023-08-16T05:40:54.504Z,21.41
2023-08-16T05:41:56.125Z,21.60
2023-08-16T05:42:57.721Z,21.66
2023-08-16T05:43:59.253Z,21.84
2023-08-16T05:45:00.875Z,21.84
2023-08-16T05:46:03.566Z,22.16
2023-08-16T05:47:05.398Z,22.08
2023-08-16T05:48:07.260Z,22.32
2023-08-16T05:49:09.481Z,22.64
2023-08-16T05:50:11.168Z,23.13
2023-08-16T05:51:12.770Z,23.79
2023-08-16T05:52:14.331Z,23.95
2023-08-16T05:53:15.921Z,24.59
2023-08-16T05:54:17.522Z,25.13
2023-08-16T05:55:19.106Z,25.17
2023-08-16T05:56:20.717Z,25.02
2023-08-16T05:57:22.757Z,25.24
2023-08-16T05:58:24.422Z,25.63
2023-08-16T05:59:26.124Z,25.47
2023-08-16T06:00:27.691Z,25.67
2023-08-16T06:01:29.357Z,25.45
2023-08-16T06:02:31.059Z,25.60
2023-08-16T06:03:32.841Z,26.31
2023-08-16T06:04:35.156Z,26.45
2023-08-16T06:05:36.646Z,26.61
2023-08-16T06:06:38.749Z,26.95
2023-08-16T06:07:40.440Z,26.61
2023-08-16T06:08:42.015Z,26.86
2023-08-16T06:09:43.593Z,27.35
2023-08-16T06:10:45.166Z,27.92
2023-08-16T06:11:46.722Z,27.92
2023-08-16T06:12:48.294Z,28.05
2023-08-16T06:13:49.980Z,28.55
2023-08-16T06:14:51.535Z,28.14
2023-08-16T06:15:53.140Z,28.27
2023-08-16T06:16:54.768Z,28.48
2023-08-16T06:17:56.359Z,28.31
2023-08-16T06:18:57.974Z,28.96
2023-08-16T06:19:59.525Z,28.59
2023-08-16T06:21:01.106Z,28.71
2023-08-16T06:22:03.296Z,28.80
2023-08-16T06:23:05.008Z,28.97
2023-08-16T06:24:07.302Z,29.42
2023-08-16T06:25:09.429Z,29.46
2023-08-16T06:26:10.924Z,29.21
2023-08-16T06:27:12.546Z,29.73
2023-08-16T06:28:14.134Z,29.55
2023-08-16T06:29:15.700Z,29.89
2023-08-16T06:30:17.339Z,30.30
2023-08-16T06:31:19.840Z,30.22
2023-08-16T06:32:21.539Z,30.16
2023-08-16T06:33:23.554Z,29.91
2023-08-16T06:34:25.535Z,30.20
2023-08-16T06:35:27.090Z,30.26
2023-08-16T06:36:29.189Z,30.63
2023-08-16T06:37:32.238Z,30.40
2023-08-16T06:38:33.877Z,31.10
2023-08-16T06:39:35.474Z,30.71
2023-08-16T06:40:37.275Z,30.59
2023-08-16T06:41:38.896Z,30.92
2023-08-16T06:42:43.350Z,30.79
2023-08-16T06:43:44.970Z,30.65
2023-08-16T06:44:46.821Z,31.55
2023-08-16T06:45:48.374Z,31.50
2023-08-16T06:46:50.020Z,31.39
2023-08-16T06:47:51.818Z,31.47
2023-08-16T06:48:54.123Z,31.97
2023-08-16T06:49:55.738Z,31.40
2023-08-16T06:50:57.488Z,31.34
2023-08-16T06:51:59.395Z,31.93
2023-08-16T06:53:01.061Z,31.90
2023-08-16T06:54:02.797Z,30.80
2023-08-16T06:55:04.714Z,31.83
2023-08-16T06:56:06.448Z,31.84
2023-08-16T06:57:08.109Z,31.98
2023-08-16T06:58:09.733Z,31.90
2023-08-16T06:59:11.821Z,31.75
2023-08-16T07:00:14.110Z,32.06
2023-08-16T07:01:15.635Z,32.41
2023-08-16T07:02:18.773Z,33.01
2023-08-16T07:03:20.797Z,33.09
2023-08-16T07:04:22.501Z,31.65
2023-08-16T07:05:26.593Z,32.36
2023-08-16T07:06:28.279Z,32.78
2023-08-16T07:07:31.639Z,32.96
2023-08-16T07:08:33.270Z,33.16
2023-08-16T07:09:34.863Z,32.95
2023-08-16T07:10:36.498Z,33.52
2023-08-16T07:11:39.422Z,33.69
2023-08-16T07:12:42.845Z,33.78
2023-08-16T07:13:44.887Z,33.73
2023-08-16T07:14:46.599Z,34.26
2023-08-16T07:15:48.203Z,34.77
2023-08-16T07:16:50.268Z,33.52
2023-08-16T07:17:51.856Z,34.09
2023-08-16T07:18:53.635Z,34.82
2023-08-16T07:19:55.376Z,35.36
2023-08-16T07:20:56.978Z,34.40
2023-08-16T07:21:59.753Z,35.25
2023-08-16T07:23:03.291Z,34.89
2023-08-16T07:24:06.922Z,35.02
2023-08-16T07:25:11.715Z,34.46
2023-08-16T07:26:14.938Z,34.58
2023-08-16T07:27:18.012Z,35.13
2023-08-16T07:28:21.173Z,35.77
2023-08-16T07:29:24.298Z,35.42
2023-08-16T07:30:27.650Z,34.67
2023-08-16T07:31:30.977Z,34.77
2023-08-16T07:32:33.059Z,35.31
2023-08-16T07:33:36.244Z,35.94
2023-08-16T07:34:37.902Z,35.23
2023-08-16T07:35:39.484Z,35.43
2023-08-16T07:36:41.159Z,35.73
2023-08-16T07:37:42.838Z,36.00
2023-08-16T07:38:45.108Z,35.34
2023-08-16T07:39:46.688Z,34.18
2023-08-16T07:40:48.912Z,34.50
2023-08-16T07:41:50.565Z,34.68
2023-08-16T07:42:52.145Z,34.85
2023-08-16T07:43:53.909Z,35.32
2023-08-16T07:44:55.478Z,35.74
2023-08-16T07:45:57.210Z,36.22
2023-08-16T07:46:58.831Z,34.15
2023-08-16T07:48:00.450Z,34.63
2023-08-16T07:49:02.036Z,34.61
2023-08-16T07:50:03.792Z,34.44
2023-08-16T07:51:05.690Z,34.41
2023-08-16T07:52:07.421Z,34.52
2023-08-16T07:53:10.082Z,34.04
2023-08-16T07:54:13.292Z,35.32
2023-08-16T07:55:16.338Z,35.50
2023-08-16T07:56:19.271Z,34.14
2023-08-16T07:57:22.161Z,34.92
2023-08-16T07:58:25.038Z,34.48
2023-08-16T07:59:28.335Z,33.72
2023-08-16T08:00:31.465Z,34.43
2023-08-16T08:01:34.403Z,34.66
2023-08-16T08:02:54.282Z,34.74
2023-08-16T08:03:59.531Z,34.49
2023-08-16T08:05:02.847Z,35.42
2023-08-16T08:06:05.078Z,35.23
2023-08-16T08:07:06.547Z,35.48
2023-08-16T08:08:09.145Z,35.82
2023-08-16T08:09:10.949Z,35.86
2023-08-16T08:10:12.587Z,35.82
2023-08-16T08:11:15.502Z,35.16
2023-08-16T08:12:17.539Z,34.52
2023-08-16T08:13:19.116Z,34.66
2023-08-16T08:14:20.664Z,34.34
2023-08-16T08:15:22.252Z,34.45
2023-08-16T08:16:24.535Z,34.47
2023-08-16T08:17:26.467Z,35.13
2023-08-16T08:18:28.063Z,35.14
2023-08-16T08:19:29.637Z,36.40
2023-08-16T08:20:31.218Z,35.80
2023-08-16T08:21:32.751Z,35.40
2023-08-16T08:22:34.351Z,35.33
2023-08-16T08:23:36.035Z,34.60
2023-08-16T08:24:37.657Z,34.98
2023-08-16T08:25:43.733Z,35.16
2023-08-16T08:26:46.052Z,35.35
2023-08-16T08:27:47.697Z,34.86
2023-08-16T08:28:49.264Z,34.86
2023-08-16T08:29:50.919Z,35.01
2023-08-16T08:30:54.039Z,35.57
2023-08-16T08:31:55.634Z,35.26
2023-08-16T08:32:59.582Z,35.45
2023-08-16T08:34:01.334Z,36.21
2023-08-16T08:35:06.152Z,35.93
2023-08-16T08:36:07.928Z,36.15
2023-08-16T08:37:09.742Z,36.49
2023-08-16T08:38:11.489Z,35.50
2023-08-16T08:39:13.188Z,35.92
2023-08-16T08:40:14.850Z,36.12
2023-08-16T08:41:20.639Z,35.31
2023-08-16T08:42:23.878Z,35.77
2023-08-16T08:43:29.273Z,35.18
2023-08-16T08:44:31.316Z,36.35
2023-08-16T08:45:32.846Z,36.80
2023-08-16T08:46:35.170Z,36.26
2023-08-16T08:47:36.898Z,36.72
2023-08-16T08:48:38.649Z,36.66
2023-08-16T08:49:40.787Z,36.30
2023-08-16T08:50:43.984Z,35.52
2023-08-16T08:51:45.637Z,36.38
2023-08-16T08:52:52.669Z,35.69
2023-08-16T08:53:54.304Z,36.40
2023-08-16T08:54:55.930Z,36.39
2023-08-16T08:56:04.034Z,36.22
2023-08-16T08:57:05.641Z,36.43
2023-08-16T08:58:07.277Z,36.19
2023-08-16T08:59:15.014Z,36.23
2023-08-16T09:00:21.052Z,36.07
2023-08-16T09:01:24.524Z,35.95
2023-08-16T09:02:29.140Z,35.94
2023-08-16T09:03:32.370Z,36.49
2023-08-16T09:04:34.396Z,37.47
2023-08-16T09:05:38.768Z,36.44
2023-08-16T09:06:40.533Z,36.98
2023-08-16T09:07:42.897Z,37.16
2023-08-16T09:08:46.851Z,36.97
2023-08-16T09:09:50.325Z,36.72
2023-08-16T09:10:51.996Z,36.94
2023-08-16T09:11:53.617Z,37.05
2023-08-16T09:12:55.519Z,36.94
2023-08-16T09:13:57.328Z,37.03
2023-08-16T09:14:59.210Z,36.79
2023-08-16T09:16:02.356Z,37.56
2023-08-16T09:17:04.015Z,36.75
2023-08-16T09:18:16.174Z,36.91
2023-08-16T09:19:17.706Z,37.34
2023-08-16T09:20:19.781Z,36.70
2023-08-16T09:21:25.767Z,36.92
2023-08-16T09:22:29.206Z,37.18
2023-08-16T09:23:33.547Z,37.83
2023-08-16T09:24:35.117Z,37.99
2023-08-16T09:25:36.690Z,38.40
2023-08-16T09:26:38.689Z,37.68
2023-08-16T09:27:44.621Z,37.85
2023-08-16T09:28:47.360Z,38.00
2023-08-16T09:29:51.070Z,38.65
2023-08-16T09:30:53.951Z,38.17
2023-08-16T09:31:56.899Z,37.55
2023-08-16T09:32:59.768Z,37.93
2023-08-16T09:34:03.013Z,38.61
2023-08-16T09:35:06.816Z,38.82
2023-08-16T09:36:09.722Z,38.04
2023-08-16T09:37:14.262Z,37.49
2023-08-16T09:38:37.346Z,37.97
2023-08-16T09:39:39.406Z,37.65
2023-08-16T09:40:51.096Z,37.48
2023-08-16T09:41:52.723Z,36.65
2023-08-16T09:43:03.654Z,37.85
2023-08-16T09:44:09.086Z,37.83
2023-08-16T09:45:10.814Z,39.03
2023-08-16T09:46:12.919Z,38.43
2023-08-16T09:47:15.865Z,38.09
2023-08-16T09:48:24.877Z,38.31
2023-08-16T09:49:26.783Z,37.58
2023-08-16T09:50:51.833Z,37.91
2023-08-16T09:52:59.517Z,37.80
2023-08-16T09:54:03.218Z,37.38
2023-08-16T09:55:08.707Z,37.65
2023-08-16T09:58:21.293Z,38.23
2023-08-16T10:00:29.031Z,37.95
2023-08-16T10:01:31.839Z,37.94
2023-08-16T10:03:38.888Z,38.46
2023-08-16T10:05:47.572Z,38.02
2023-08-16T10:07:57.639Z,37.85
2023-08-16T10:08:59.513Z,38.09
2023-08-16T10:10:01.235Z,37.61
2023-08-16T10:11:03.184Z,38.52
2023-08-16T10:12:05.040Z,38.69
2023-08-16T10:13:08.526Z,38.27
2023-08-16T10:14:10.216Z,37.00
2023-08-16T10:15:11.850Z,37.73
2023-08-16T10:16:15.625Z,37.53
2023-08-16T10:17:18.382Z,37.94
2023-08-16T10:18:22.766Z,37.50
2023-08-16T10:19:24.839Z,37.52
2023-08-16T10:20:30.246Z,38.19
2023-08-16T10:21:35.548Z,37.58
2023-08-16T10:22:42.845Z,37.38
2023-08-16T10:23:45.615Z,37.86
2023-08-16T10:24:51.112Z,38.37
2023-08-16T10:25:53.457Z,38.10
2023-08-16T10:26:55.866Z,37.59
2023-08-16T10:27:59.464Z,36.64
2023-08-16T10:29:21.221Z,36.89
2023-08-16T10:30:24.830Z,37.14
2023-08-16T10:31:31.117Z,36.72
2023-08-16T10:32:33.637Z,37.87
2023-08-16T10:33:45.146Z,36.95
2023-08-16T10:34:47.101Z,37.08
2023-08-16T10:35:51.581Z,36.73
2023-08-16T10:36:53.240Z,35.57
2023-08-16T10:37:55.022Z,35.43
2023-08-16T10:39:00.185Z,36.19
2023-08-16T10:41:14.654Z,36.80
2023-08-16T10:42:17.009Z,37.04
2023-08-16T10:44:26.757Z,36.96
2023-08-16T10:46:38.247Z,36.58
2023-08-16T10:47:41.647Z,35.97
2023-08-16T10:48:43.262Z,35.46
2023-08-16T10:49:44.843Z,36.39
2023-08-16T10:50:59.500Z,36.52
2023-08-16T10:52:02.196Z,36.52
2023-08-16T10:53:05.771Z,36.14
2023-08-16T10:54:07.458Z,36.21
2023-08-16T10:55:09.653Z,36.30
2023-08-16T10:56:11.284Z,36.12
2023-08-16T10:57:13.942Z,36.10
2023-08-16T10:58:23.810Z,35.89
2023-08-16T10:59:25.434Z,35.80
2023-08-16T11:00:35.059Z,35.54
2023-08-16T11:01:36.846Z,36.44
2023-08-16T11:02:41.130Z,36.71
2023-08-16T11:03:45.028Z,36.43
2023-08-16T11:04:47.454Z,35.56
2023-08-16T11:05:50.210Z,36.39
2023-08-16T11:07:02.333Z,36.07
2023-08-16T11:08:10.437Z,35.94
2023-08-16T11:09:12.168Z,35.93
2023-08-16T11:10:14.571Z,35.76
2023-08-16T11:11:16.265Z,36.13
2023-08-16T11:12:19.623Z,35.97
2023-08-16T11:13:22.712Z,35.94
2023-08-16T11:14:24.311Z,35.25
2023-08-16T11:15:27.985Z,34.77
2023-08-16T11:16:29.991Z,35.37
2023-08-16T11:17:31.726Z,35.18
2023-08-16T11:18:35.298Z,35.23
2023-08-16T11:19:37.361Z,35.54
2023-08-16T11:20:39.342Z,35.96
2023-08-16T11:21:45.673Z,35.90
2023-08-16T11:22:48.094Z,35.29
2023-08-16T11:23:54.512Z,34.51
2023-08-16T11:24:56.450Z,34.70
2023-08-16T11:26:02.248Z,34.47
2023-08-16T11:27:06.353Z,34.42
2023-08-16T11:28:08.339Z,33.79
2023-08-16T11:29:09.932Z,33.24
2023-08-16T11:30:12.950Z,33.05
2023-08-16T11:31:14.565Z,33.38
2023-08-16T11:32:16.401Z,33.01
2023-08-16T11:33:18.141Z,32.98
2023-08-16T11:34:19.794Z,33.16
2023-08-16T11:35:21.541Z,32.71
2023-08-16T11:36:23.277Z,32.71
2023-08-16T11:37:25.281Z,32.30
2023-08-16T11:38:28.363Z,32.17
2023-08-16T11:39:29.982Z,31.91
2023-08-16T11:40:31.608Z,32.00
2023-08-16T11:41:33.294Z,32.04
2023-08-16T11:42:34.881Z,31.41
2023-08-16T11:43:37.236Z,31.68
2023-08-16T11:44:41.778Z,31.82
2023-08-16T11:45:43.529Z,31.63
2023-08-16T11:46:48.600Z,31.79
2023-08-16T11:47:51.749Z,30.94
2023-08-16T11:48:54.417Z,31.35
2023-08-16T11:49:56.100Z,31.50
2023-08-16T11:50:58.462Z,31.21
2023-08-16T11:52:00.274Z,31.09
2023-08-16T11:53:03.812Z,31.26
2023-08-16T11:54:06.431Z,31.08
2023-08-16T11:55:10.151Z,30.98
2023-08-16T11:56:12.976Z,31.04
2023-08-16T11:57:19.263Z,30.91
2023-08-16T11:58:20.875Z,30.90
2023-08-16T11:59:26.451Z,30.93
2023-08-16T12:00:30.604Z,30.89
2023-08-16T12:01:32.533Z,30.92
2023-08-16T12:02:34.245Z,30.87
2023-08-16T12:03:36.727Z,30.63
2023-08-16T12:04:43.449Z,30.77
2023-08-16T12:05:49.178Z,30.78
2023-08-16T12:06:50.975Z,30.48
2023-08-16T12:07:52.878Z,30.74
2023-08-16T12:08:55.135Z,30.62
2023-08-16T12:09:56.832Z,30.28
2023-08-16T12:11:00.044Z,30.38
2023-08-16T12:12:07.768Z,30.56
2023-08-16T12:13:14.115Z,30.53
2023-08-16T12:14:15.960Z,30.76
2023-08-16T12:15:17.543Z,30.67
2023-08-16T12:16:19.229Z,30.25
2023-08-16T12:17:20.924Z,30.29
2023-08-16T12:18:23.880Z,30.13
2023-08-16T12:19:25.544Z,30.31
2023-08-16T12:20:27.984Z,30.35
2023-08-16T12:21:29.651Z,30.22
2023-08-16T12:22:31.269Z,30.29
2023-08-16T12:23:32.850Z,30.34
2023-08-16T12:24:35.072Z,30.11
2023-08-16T12:25:36.658Z,30.19
2023-08-16T12:26:38.328Z,30.06
2023-08-16T12:27:40.654Z,30.14
2023-08-16T12:28:42.860Z,30.15
2023-08-16T12:29:44.346Z,30.14
2023-08-16T12:30:46.031Z,29.73
2023-08-16T12:31:47.655Z,29.77
2023-08-16T12:32:49.433Z,29.99
2023-08-16T12:33:51.040Z,29.99
2023-08-16T12:35:00.764Z,29.82
2023-08-16T12:36:03.435Z,29.83
2023-08-16T12:37:05.346Z,29.80
2023-08-16T12:38:06.943Z,29.75
2023-08-16T12:39:09.524Z,29.83
2023-08-16T12:40:11.745Z,29.74
2023-08-16T12:41:13.240Z,29.82
2023-08-16T12:42:14.875Z,29.81
2023-08-16T12:44:23.153Z,29.60
2023-08-16T12:45:24.884Z,29.60
2023-08-16T12:46:26.501Z,29.73
2023-08-16T12:47:28.326Z,29.53
2023-08-16T12:48:31.053Z,29.50
2023-08-16T12:49:32.760Z,29.37
2023-08-16T12:50:34.371Z,29.32
2023-08-16T12:51:37.492Z,29.36
2023-08-16T12:52:39.098Z,29.33
2023-08-16T12:53:42.973Z,29.32
2023-08-16T12:54:44.598Z,29.53
2023-08-16T12:55:49.132Z,29.44
2023-08-16T12:58:03.358Z,29.48
2023-08-16T12:59:17.396Z,29.42
2023-08-16T13:00:25.252Z,29.21
2023-08-16T13:01:41.763Z,29.22
2023-08-16T13:02:57.224Z,29.32
2023-08-16T13:04:01.498Z,29.42
2023-08-16T13:05:11.319Z,29.28
2023-08-16T13:07:28.049Z,29.68
2023-08-16T13:08:31.881Z,29.66
2023-08-16T13:09:48.099Z,29.45
2023-08-16T13:10:55.925Z,29.33
2023-08-16T13:12:08.390Z,29.54
2023-08-16T13:13:12.199Z,29.55
2023-08-16T13:14:30.122Z,29.37
2023-08-16T13:15:40.055Z,29.10
2023-08-16T13:16:47.185Z,29.15
2023-08-16T13:18:19.067Z,29.11
2023-08-16T13:19:24.422Z,29.25
2023-08-16T13:21:54.084Z,29.13
2023-08-16T13:23:10.095Z,29.03
2023-08-16T13:28:44.343Z,29.07
2023-08-16T13:31:05.889Z,29.11
2023-08-16T13:32:26.848Z,29.05
2023-08-16T13:33:30.488Z,29.03
2023-08-16T13:36:56.625Z,29.07
2023-08-16T13:37:59.224Z,29.09
2023-08-16T13:39:09.361Z,29.10
2023-08-16T13:40:20.267Z,29.13
2023-08-16T13:41:25.466Z,29.18
2023-08-16T13:43:43.616Z,29.14
2023-08-16T13:45:50.951Z,28.97
2023-08-16T13:46:52.676Z,29.15
2023-08-16T13:47:54.434Z,29.09
2023-08-16T13:48:56.053Z,29.07
2023-08-16T13:49:57.667Z,28.93
2023-08-16T13:50:59.256Z,29.06
2023-08-16T13:52:00.928Z,29.14
2023-08-16T13:53:02.600Z,29.14
2023-08-16T13:54:04.456Z,29.12
2023-08-16T13:55:06.512Z,29.15
2023-08-16T13:56:08.132Z,29.16
2023-08-16T13:57:09.768Z,29.05